createdAt,value
2023-10-26T00:01:43.822Z,95.72
2023-10-26T00:04:12.615Z,95.63
2023-10-26T00:06:44.686Z,95.47
2023-10-26T00:09:13.519Z,94.35
2023-10-26T00:11:42.509Z,94.75
2023-10-26T00:14:11.362Z,95.11
2023-10-26T00:16:40.146Z,95.22
2023-10-26T00:19:08.925Z,94.89
2023-10-26T00:21:37.905Z,94.65
2023-10-26T00:24:07.222Z,94.89
2023-10-26T00:26:36.463Z,95.34
2023-10-26T00:29:05.442Z,95.33
2023-10-26T00:31:34.217Z,95.01
2023-10-26T00:34:03.507Z,94.96
2023-10-26T00:36:32.276Z,94.59
2023-10-26T00:39:01.260Z,94.87
2023-10-26T00:41:30.091Z,95.09
2023-10-26T00:43:58.792Z,94.80
2023-10-26T00:46:27.987Z,94.35
2023-10-26T00:48:57.172Z,94.71
2023-10-26T00:51:26.419Z,95.15
2023-10-26T00:53:55.536Z,94.88
2023-10-26T00:56:24.774Z,94.68
2023-10-26T00:58:53.888Z,95.34
2023-10-26T01:01:23.027Z,95.40
2023-10-26T01:03:54.268Z,94.72
2023-10-26T01:06:22.950Z,94.57
2023-10-26T01:08:52.085Z,94.25
2023-10-26T01:11:23.353Z,93.77
2023-10-26T01:13:52.575Z,94.39
2023-10-26T01:16:21.793Z,94.19
2023-10-26T01:18:50.631Z,94.16
2023-10-26T01:21:19.465Z,93.40
2023-10-26T01:23:48.114Z,92.98
2023-10-26T01:26:16.855Z,92.66
2023-10-26T01:28:45.693Z,92.04
2023-10-26T01:31:21.025Z,92.62
2023-10-26T01:33:49.762Z,92.73
2023-10-26T01:36:18.938Z,92.43
2023-10-26T01:38:47.873Z,92.39
2023-10-26T01:41:16.891Z,92.84
2023-10-26T01:43:45.510Z,93.49
2023-10-26T01:46:14.229Z,92.67
2023-10-26T01:48:43.254Z,92.56
2023-10-26T01:51:11.836Z,92.50
2023-10-26T01:53:42.340Z,92.50
2023-10-26T01:56:12.475Z,92.22
2023-10-26T01:58:41.889Z,92.24
2023-10-26T02:01:11.001Z,92.48
2023-10-26T02:03:40.119Z,92.10
2023-10-26T02:06:11.168Z,92.39
2023-10-26T02:08:41.328Z,91.94
2023-10-26T02:11:10.188Z,92.60
2023-10-26T02:13:39.023Z,92.42
2023-10-26T02:16:09.346Z,91.90
2023-10-26T02:18:38.068Z,91.47
2023-10-26T02:21:07.923Z,91.42
2023-10-26T02:23:36.452Z,91.10
2023-10-26T02:26:08.010Z,91.40
2023-10-26T02:28:36.758Z,91.40
2023-10-26T02:31:06.292Z,90.95
2023-10-26T02:33:35.161Z,91.04
2023-10-26T02:36:06.386Z,91.64
2023-10-26T02:38:35.133Z,91.10
2023-10-26T02:41:07.571Z,91.09
2023-10-26T02:43:36.131Z,91.23
2023-10-26T02:46:08.850Z,91.08
2023-10-26T02:48:37.906Z,91.51
2023-10-26T02:51:06.901Z,91.19
2023-10-26T02:53:35.670Z,91.32
2023-10-26T02:56:05.210Z,90.67
2023-10-26T02:58:34.374Z,91.13
2023-10-26T03:01:03.460Z,91.42
2023-10-26T03:03:32.357Z,91.12
2023-10-26T03:06:01.669Z,91.19
2023-10-26T03:08:30.495Z,90.53
2023-10-26T03:10:59.775Z,90.58
2023-10-26T03:13:28.532Z,90.66
2023-10-26T03:15:57.057Z,90.91
2023-10-26T03:18:25.810Z,90.96
2023-10-26T03:20:54.529Z,90.75
2023-10-26T03:23:22.919Z,91.05
2023-10-26T03:25:51.940Z,91.44
2023-10-26T03:28:20.409Z,91.29
2023-10-26T03:30:49.348Z,90.49
2023-10-26T03:33:17.930Z,90.41
2023-10-26T03:35:47.125Z,90.74
2023-10-26T03:38:16.167Z,90.45
2023-10-26T03:40:44.954Z,90.40
2023-10-26T03:43:13.887Z,90.59
2023-10-26T03:45:47.386Z,90.24
2023-10-26T03:48:16.367Z,89.61
2023-10-26T03:50:45.868Z,89.57
2023-10-26T03:53:14.512Z,90.34
2023-10-26T03:55:43.102Z,89.40
2023-10-26T03:58:14.247Z,89.89
2023-10-26T04:00:43.043Z,90.07
2023-10-26T04:03:12.155Z,89.81
2023-10-26T04:05:41.355Z,90.06
2023-10-26T04:08:11.421Z,89.54
2023-10-26T04:10:40.464Z,90.36
2023-10-26T04:13:11.116Z,90.21
2023-10-26T04:15:40.040Z,89.83
2023-10-26T04:18:08.983Z,88.77
2023-10-26T04:20:37.890Z,88.96
2023-10-26T04:23:06.903Z,89.80
2023-10-26T04:25:53.018Z,89.20
2023-10-26T04:28:23.352Z,89.05
2023-10-26T04:30:52.586Z,89.71
2023-10-26T04:33:21.449Z,89.17
2023-10-26T04:35:51.327Z,89.53
2023-10-26T04:38:20.323Z,89.23
2023-10-26T04:40:48.878Z,89.02
2023-10-26T04:43:18.119Z,88.76
2023-10-26T04:45:48.493Z,89.28
2023-10-26T04:48:16.989Z,89.04
2023-10-26T04:50:45.748Z,89.43
2023-10-26T04:53:14.162Z,88.92
2023-10-26T04:55:42.865Z,88.47
2023-10-26T04:58:15.529Z,88.16
2023-10-26T05:00:44.378Z,88.80
2023-10-26T05:03:13.263Z,89.08
2023-10-26T05:05:41.761Z,89.17
2023-10-26T05:08:10.602Z,88.33
2023-10-26T05:10:39.555Z,89.50
2023-10-26T05:13:08.327Z,89.09
2023-10-26T05:15:36.923Z,88.35
2023-10-26T05:18:10.484Z,88.33
2023-10-26T05:20:40.246Z,88.80
2023-10-26T05:23:10.240Z,87.82
2023-10-26T05:25:38.841Z,88.07
2023-10-26T05:28:07.615Z,88.67
2023-10-26T05:30:42.746Z,88.50
2023-10-26T05:33:11.429Z,87.63
2023-10-26T05:35:40.165Z,88.67
2023-10-26T05:38:10.514Z,87.85
2023-10-26T05:40:39.349Z,88.04
2023-10-26T05:43:07.978Z,88.08
2023-10-26T05:45:41.870Z,87.89
2023-10-26T05:48:12.158Z,87.52
2023-10-26T05:50:45.185Z,88.43
2023-10-26T05:53:13.746Z,87.81
2023-10-26T05:55:43.105Z,87.92
2023-10-26T05:58:11.697Z,87.92
2023-10-26T06:00:40.778Z,88.46
2023-10-26T06:03:09.649Z,88.35
2023-10-26T06:05:38.516Z,87.72
2023-10-26T06:08:07.570Z,87.63
2023-10-26T06:10:36.666Z,86.95
2023-10-26T06:13:09.543Z,87.74
2023-10-26T06:15:38.389Z,88.36
2023-10-26T06:18:07.277Z,87.49
2023-10-26T06:20:35.811Z,87.87
2023-10-26T06:23:04.702Z,87.92
2023-10-26T06:25:40.854Z,87.86
2023-10-26T06:28:09.542Z,87.08
2023-10-26T06:30:38.245Z,87.22
2023-10-26T06:33:06.995Z,86.85
2023-10-26T06:35:35.915Z,86.64
2023-10-26T06:38:04.699Z,87.44
2023-10-26T06:40:33.318Z,86.14
2023-10-26T06:43:05.029Z,86.18
2023-10-26T06:45:33.501Z,86.22
2023-10-26T06:48:02.188Z,86.83
2023-10-26T06:50:30.899Z,85.52
2023-10-26T06:53:02.396Z,86.36
2023-10-26T06:55:37.297Z,86.88
2023-10-26T06:58:08.852Z,86.67
2023-10-26T07:00:37.450Z,85.74
2023-10-26T07:03:06.210Z,85.27
2023-10-26T07:05:35.678Z,86.15
2023-10-26T07:08:04.695Z,86.10
2023-10-26T07:10:33.415Z,86.08
2023-10-26T07:13:01.994Z,85.13
2023-10-26T07:15:30.639Z,86.35
2023-10-26T07:17:59.273Z,85.98
2023-10-26T07:20:27.987Z,85.01
2023-10-26T07:22:56.742Z,84.53
2023-10-26T07:25:28.285Z,84.43
2023-10-26T07:27:57.097Z,84.00
2023-10-26T07:30:25.779Z,84.67
2023-10-26T07:32:55.022Z,83.42
2023-10-26T07:35:23.710Z,84.33
2023-10-26T07:38:09.094Z,84.51
2023-10-26T07:40:54.288Z,84.48
2023-10-26T07:43:23.107Z,83.95
2023-10-26T07:45:53.235Z,83.83
2023-10-26T07:48:22.428Z,83.82
2023-10-26T07:50:52.681Z,84.46
2023-10-26T07:53:21.363Z,84.14
2023-10-26T07:55:49.876Z,84.09
2023-10-26T07:58:18.737Z,84.13
2023-10-26T08:00:47.329Z,84.31
2023-10-26T08:03:16.084Z,84.27
2023-10-26T08:05:44.911Z,83.33
2023-10-26T08:08:13.538Z,84.01
2023-10-26T08:10:42.230Z,83.91
2023-10-26T08:13:11.586Z,82.46
2023-10-26T08:16:33.807Z,82.84
2023-10-26T08:18:32.601Z,82.10
2023-10-26T08:21:01.880Z,83.24
2023-10-26T08:23:31.837Z,82.31
2023-10-26T08:26:08.705Z,81.97
2023-10-26T08:28:38.300Z,82.76
2023-10-26T08:31:08.693Z,81.41
2023-10-26T08:33:37.534Z,82.01
2023-10-26T08:36:07.466Z,81.04
2023-10-26T08:38:36.082Z,80.88
2023-10-26T08:41:08.346Z,82.10
2023-10-26T08:43:37.083Z,82.46
2023-10-26T08:46:08.386Z,82.46
2023-10-26T08:48:42.486Z,82.11
2023-10-26T08:51:11.217Z,79.53
2023-10-26T08:53:41.838Z,80.91
2023-10-26T08:56:13.032Z,81.59
2023-10-26T08:58:41.797Z,77.94
2023-10-26T09:01:10.715Z,80.55
2023-10-26T09:03:39.488Z,79.90
2023-10-26T09:06:08.116Z,80.89
2023-10-26T09:08:36.778Z,79.52
2023-10-26T09:11:27.741Z,80.33
2023-10-26T09:13:56.865Z,79.23
2023-10-26T09:16:42.220Z,77.80
2023-10-26T09:19:10.926Z,78.33
2023-10-26T09:21:58.270Z,78.85
2023-10-26T09:24:29.013Z,77.96
2023-10-26T09:27:06.751Z,77.18
2023-10-26T09:29:42.597Z,78.80
2023-10-26T09:32:11.853Z,79.26
2023-10-26T09:34:42.500Z,77.35
2023-10-26T09:37:12.181Z,77.74
2023-10-26T09:39:44.854Z,76.72
2023-10-26T09:42:14.481Z,77.79
2023-10-26T09:44:43.311Z,78.36
2023-10-26T09:47:13.309Z,78.79
2023-10-26T09:49:42.333Z,77.70
2023-10-26T09:52:11.157Z,77.33
2023-10-26T09:54:42.880Z,76.91
2023-10-26T09:57:20.656Z,77.14
2023-10-26T09:59:55.345Z,76.70
2023-10-26T10:02:25.780Z,78.15
2023-10-26T10:04:54.454Z,78.01
2023-10-26T10:07:43.057Z,76.77
2023-10-26T10:10:13.858Z,78.17
2023-10-26T10:12:44.422Z,77.83
2023-10-26T10:15:40.127Z,74.91
2023-10-26T10:18:08.658Z,75.79
2023-10-26T10:20:38.526Z,75.30
2023-10-26T10:23:07.242Z,76.75
2023-10-26T10:25:51.074Z,74.94
2023-10-26T10:28:22.986Z,74.38
2023-10-26T10:31:02.498Z,74.46
2023-10-26T10:33:31.185Z,75.00
2023-10-26T10:36:07.138Z,76.34
2023-10-26T10:38:35.661Z,77.11
2023-10-26T10:41:04.433Z,75.24
2023-10-26T10:43:42.053Z,74.82
2023-10-26T10:46:22.246Z,73.72
2023-10-26T10:48:59.167Z,75.94
2023-10-26T10:51:32.571Z,74.90
2023-10-26T10:54:07.614Z,76.46
2023-10-26T10:56:49.756Z,75.50
2023-10-26T10:59:28.075Z,73.81
2023-10-26T11:02:14.051Z,73.09
2023-10-26T11:07:32.160Z,73.23
2023-10-26T11:10:02.175Z,73.34
2023-10-26T11:12:31.099Z,74.33
2023-10-26T11:15:00.335Z,74.52
2023-10-26T11:17:31.581Z,75.02
2023-10-26T11:20:00.127Z,74.73
2023-10-26T11:22:29.914Z,74.58
2023-10-26T11:24:58.655Z,74.71
2023-10-26T11:27:27.364Z,75.78
2023-10-26T11:30:05.874Z,75.30
2023-10-26T11:32:35.187Z,75.17
2023-10-26T11:35:20.659Z,74.74
2023-10-26T11:37:57.989Z,75.94
2023-10-26T11:40:34.108Z,76.81
2023-10-26T11:43:07.593Z,76.68
2023-10-26T11:45:50.162Z,75.19
2023-10-26T11:48:29.092Z,75.34
2023-10-26T11:50:57.828Z,75.54
2023-10-26T11:53:28.059Z,75.88
2023-10-26T11:55:57.145Z,75.71
2023-10-26T11:58:25.926Z,75.95
2023-10-26T12:00:57.073Z,75.81
2023-10-26T12:03:25.902Z,75.92
2023-10-26T12:05:55.959Z,76.92
2023-10-26T12:08:24.789Z,76.34
2023-10-26T12:10:53.788Z,77.19
2023-10-26T12:13:22.297Z,76.59
2023-10-26T12:15:51.377Z,77.09
2023-10-26T12:18:20.649Z,77.09
2023-10-26T12:20:49.234Z,76.97
2023-10-26T12:23:20.898Z,77.32
2023-10-26T12:25:49.530Z,77.34
2023-10-26T12:28:24.086Z,77.47
2023-10-26T12:30:55.328Z,78.24
2023-10-26T12:33:24.202Z,78.00
2023-10-26T12:35:52.708Z,77.61
2023-10-26T12:38:21.743Z,77.68
2023-10-26T12:40:50.511Z,77.73
2023-10-26T12:43:19.318Z,77.69
2023-10-26T12:45:50.105Z,77.44
2023-10-26T12:48:18.669Z,77.00
2023-10-26T12:50:47.307Z,77.55
2023-10-26T12:53:18.650Z,77.68
2023-10-26T12:55:49.795Z,77.40
2023-10-26T12:58:18.785Z,77.66
2023-10-26T13:00:50.203Z,77.93
2023-10-26T13:03:19.017Z,77.08
2023-10-26T13:05:47.642Z,77.21
2023-10-26T13:08:16.392Z,76.89
2023-10-26T13:10:45.112Z,75.27
2023-10-26T13:13:14.796Z,75.14
2023-10-26T13:15:43.379Z,75.14
2023-10-26T13:18:11.844Z,74.68
2023-10-26T13:20:40.360Z,75.09
2023-10-26T13:23:09.076Z,74.61
2023-10-26T13:25:41.494Z,73.98
2023-10-26T13:28:10.330Z,74.58
2023-10-26T13:30:39.232Z,73.56
2023-10-26T13:33:10.779Z,74.97
2023-10-26T13:35:40.099Z,74.77
2023-10-26T13:38:18.567Z,73.76
2023-10-26T13:40:49.550Z,73.72
2023-10-26T13:43:18.259Z,74.76
2023-10-26T13:45:47.470Z,74.32
2023-10-26T13:48:17.277Z,74.89
2023-10-26T13:50:59.575Z,72.88
2023-10-26T13:53:29.654Z,73.52
2023-10-26T13:56:02.956Z,73.00
2023-10-26T13:58:31.683Z,72.59
2023-10-26T14:01:01.013Z,74.79
2023-10-26T14:03:29.883Z,73.54
2023-10-26T14:05:58.681Z,74.31
2023-10-26T14:08:31.172Z,74.16
2023-10-26T14:11:02.540Z,74.12
2023-10-26T14:13:34.087Z,74.54
2023-10-26T14:16:02.886Z,74.26
2023-10-26T14:18:31.741Z,74.60
2023-10-26T14:21:00.782Z,74.63
2023-10-26T14:23:29.480Z,74.33
2023-10-26T14:26:02.300Z,74.19
2023-10-26T14:28:31.078Z,74.24
2023-10-26T14:31:02.371Z,74.91
2023-10-26T14:33:31.101Z,74.04
2023-10-26T14:36:00.048Z,73.49
2023-10-26T14:38:28.752Z,74.52
2023-10-26T14:40:59.372Z,73.90
2023-10-26T14:43:28.971Z,74.15
2023-10-26T14:45:57.932Z,74.23
2023-10-26T14:48:26.816Z,74.13
2023-10-26T14:51:02.982Z,73.17
2023-10-26T14:53:32.018Z,73.65
2023-10-26T14:56:05.922Z,73.35
2023-10-26T14:58:34.886Z,74.04
2023-10-26T15:01:03.831Z,73.68
2023-10-26T15:03:32.762Z,74.00
2023-10-26T15:06:02.727Z,73.75
2023-10-26T15:08:31.422Z,73.70
2023-10-26T15:11:22.747Z,73.24
2023-10-26T15:13:52.857Z,74.37
2023-10-26T15:16:24.729Z,74.34
2023-10-26T15:18:53.948Z,73.55
2023-10-26T15:21:22.650Z,73.88
2023-10-26T15:23:51.568Z,74.34
2023-10-26T15:26:20.227Z,74.15
2023-10-26T15:28:49.246Z,74.39
2023-10-26T15:31:17.873Z,73.53
2023-10-26T15:33:47.827Z,74.00
2023-10-26T15:36:17.915Z,74.94
2023-10-26T15:38:46.658Z,74.50
2023-10-26T15:41:15.301Z,75.13
2023-10-26T15:43:45.277Z,74.99
2023-10-26T15:46:18.268Z,74.67
2023-10-26T15:49:31.631Z,74.78
2023-10-26T15:51:36.542Z,75.09
2023-10-26T15:54:05.455Z,74.82
2023-10-26T15:56:34.659Z,75.05
2023-10-26T15:59:03.577Z,75.55
2023-10-26T16:01:32.424Z,75.83
2023-10-26T16:04:01.353Z,75.31
2023-10-26T16:06:30.438Z,75.30
2023-10-26T16:09:00.077Z,75.75
2023-10-26T16:11:31.118Z,75.91
2023-10-26T16:14:00.259Z,76.21
2023-10-26T16:16:28.988Z,76.08
2023-10-26T16:18:57.849Z,76.33
2023-10-26T16:21:26.960Z,76.75
2023-10-26T16:23:55.762Z,76.62
2023-10-26T16:26:24.521Z,76.50
2023-10-26T16:28:53.374Z,77.17
2023-10-26T16:31:22.265Z,77.54
2023-10-26T16:33:51.413Z,77.29
2023-10-26T16:36:20.535Z,77.00
2023-10-26T16:38:49.795Z,77.45
2023-10-26T16:41:19.949Z,77.70
2023-10-26T16:43:51.610Z,77.21
2023-10-26T16:46:22.019Z,77.53
2023-10-26T16:48:50.945Z,78.18
2023-10-26T16:51:19.603Z,78.14
2023-10-26T16:53:48.302Z,77.97
2023-10-26T16:56:17.043Z,77.76
2023-10-26T16:58:45.686Z,77.51
2023-10-26T17:01:14.757Z,77.59
2023-10-26T17:03:47.174Z,78.05
2023-10-26T17:06:16.020Z,77.56
2023-10-26T17:08:46.362Z,77.89
2023-10-26T17:11:15.718Z,77.90
2023-10-26T17:13:44.441Z,77.76
2023-10-26T17:16:19.013Z,78.12
2023-10-26T17:18:47.648Z,77.58
2023-10-26T17:21:17.716Z,77.23
2023-10-26T17:23:48.523Z,77.67
2023-10-26T17:26:18.438Z,77.56
2023-10-26T17:28:49.797Z,77.47
2023-10-26T17:31:18.521Z,77.55
2023-10-26T17:33:47.243Z,77.19
2023-10-26T17:36:16.439Z,77.60
2023-10-26T17:38:45.157Z,77.44
2023-10-26T17:41:15.415Z,77.20
2023-10-26T17:43:45.862Z,77.63
2023-10-26T17:46:17.298Z,77.27
2023-10-26T17:48:47.104Z,77.36
2023-10-26T17:51:19.942Z,76.99
2023-10-26T17:53:49.914Z,77.46
2023-10-26T17:56:20.407Z,77.86
2023-10-26T17:58:49.489Z,77.70
2023-10-26T18:01:19.976Z,77.44
2023-10-26T18:03:50.126Z,77.65
2023-10-26T18:06:22.358Z,77.70
2023-10-26T18:08:53.656Z,77.34
2023-10-26T18:11:25.837Z,77.75
2023-10-26T18:13:54.654Z,77.40
2023-10-26T18:16:23.761Z,77.67
2023-10-26T18:18:52.527Z,77.83
2023-10-26T18:21:21.704Z,78.16
2023-10-26T18:23:50.640Z,77.91
2023-10-26T18:26:19.382Z,77.33
2023-10-26T18:28:48.476Z,77.71
2023-10-26T18:31:19.131Z,77.50
2023-10-26T18:33:52.540Z,78.15
2023-10-26T18:36:23.324Z,77.90
2023-10-26T18:38:55.149Z,78.60
2023-10-26T18:41:25.938Z,78.10
2023-10-26T18:43:55.562Z,77.99
2023-10-26T18:46:26.873Z,78.51
2023-10-26T18:48:55.670Z,78.18
2023-10-26T18:51:25.255Z,78.40
2023-10-26T18:53:57.975Z,78.67
2023-10-26T18:56:27.047Z,78.61
2023-10-26T18:58:57.217Z,78.28
2023-10-26T19:01:27.446Z,78.06
2023-10-26T19:04:02.708Z,78.36
2023-10-26T19:06:32.440Z,78.59
2023-10-26T19:09:01.876Z,77.85
2023-10-26T19:11:30.816Z,77.82
2023-10-26T19:14:00.023Z,78.31
2023-10-26T19:16:29.562Z,78.31
2023-10-26T19:18:58.191Z,77.88
2023-10-26T19:21:26.723Z,78.58
2023-10-26T19:23:57.321Z,78.54
2023-10-26T19:26:26.139Z,78.17
2023-10-26T19:28:54.615Z,78.48
2023-10-26T19:31:25.510Z,78.33
2023-10-26T19:33:58.048Z,78.14
2023-10-26T19:36:30.102Z,78.45
2023-10-26T19:38:58.588Z,78.06
2023-10-26T19:41:27.159Z,78.01
2023-10-26T19:43:55.687Z,77.74
2023-10-26T19:46:24.369Z,78.47
2023-10-26T19:48:52.843Z,78.05
2023-10-26T19:51:24.408Z,78.01
2023-10-26T19:53:54.083Z,78.29
2023-10-26T19:56:23.809Z,78.28
2023-10-26T19:58:52.560Z,78.32
2023-10-26T20:01:21.663Z,77.84
2023-10-26T20:03:54.869Z,78.12
2023-10-26T20:06:23.584Z,78.29
2023-10-26T20:08:53.456Z,77.97
2023-10-26T20:11:24.335Z,78.20
2023-10-26T20:13:54.015Z,78.43
2023-10-26T20:16:23.180Z,78.46
2023-10-26T20:18:53.216Z,78.82
2023-10-26T20:21:23.451Z,78.66
2023-10-26T20:23:52.334Z,79.08
2023-10-26T20:26:22.891Z,78.30
2023-10-26T20:28:51.798Z,79.05
2023-10-26T20:31:20.339Z,78.91
2023-10-26T20:33:49.122Z,79.13
2023-10-26T20:36:17.722Z,79.66
2023-10-26T20:38:46.357Z,79.00
2023-10-26T20:41:14.917Z,78.95
2023-10-26T20:43:43.438Z,79.15
2023-10-26T20:46:13.558Z,79.85
2023-10-26T20:48:45.507Z,79.66
2023-10-26T20:51:15.759Z,79.83
2023-10-26T20:53:45.489Z,79.83
2023-10-26T20:56:15.627Z,79.79
2023-10-26T20:58:46.437Z,80.31
2023-10-26T21:01:15.276Z,80.73
2023-10-26T21:03:45.486Z,80.44
2023-10-26T21:06:14.754Z,80.34
2023-10-26T21:08:46.241Z,80.46
2023-10-26T21:11:16.774Z,80.72
2023-10-26T21:13:45.969Z,81.30
2023-10-26T21:16:15.927Z,81.15
2023-10-26T21:18:44.587Z,81.35
2023-10-26T21:21:13.157Z,81.11
2023-10-26T21:23:41.918Z,81.42
2023-10-26T21:26:11.933Z,81.27
2023-10-26T21:28:43.300Z,80.75
2023-10-26T21:31:12.569Z,80.56
2023-10-26T21:33:43.717Z,80.86
2023-10-26T21:36:13.085Z,80.18
2023-10-26T21:38:41.858Z,79.88
2023-10-26T21:41:10.397Z,79.96
2023-10-26T21:43:39.290Z,80.31
2023-10-26T21:46:08.711Z,79.66
2023-10-26T21:48:40.175Z,79.53
2023-10-26T21:51:12.513Z,79.49
2023-10-26T21:53:41.773Z,79.25
2023-10-26T21:56:10.360Z,80.20
2023-10-26T21:58:40.634Z,80.50
2023-10-26T22:01:10.695Z,80.06
2023-10-26T22:03:45.360Z,80.81
2023-10-26T22:06:17.223Z,80.18
2023-10-26T22:08:45.941Z,80.33
2023-10-26T22:11:14.634Z,80.49
2023-10-26T22:13:43.793Z,81.47
2023-10-26T22:16:13.023Z,80.71
2023-10-26T22:18:41.948Z,81.19
2023-10-26T22:21:14.544Z,80.79
2023-10-26T22:23:43.310Z,81.87
2023-10-26T22:26:11.829Z,81.17
2023-10-26T22:28:41.211Z,81.98
2023-10-26T22:31:11.174Z,81.88
2023-10-26T22:33:39.832Z,82.35
2023-10-26T22:36:10.092Z,81.26
2023-10-26T22:38:40.276Z,81.81
2023-10-26T22:41:12.355Z,81.63
2023-10-26T22:43:41.277Z,81.93
2023-10-26T22:46:12.875Z,81.72
2023-10-26T22:48:41.442Z,82.33
2023-10-26T22:51:10.032Z,81.95
2023-10-26T22:53:38.893Z,81.99
2023-10-26T22:56:07.589Z,81.31
2023-10-26T22:58:38.753Z,81.26
2023-10-26T23:01:07.884Z,81.58
2023-10-26T23:03:36.439Z,81.53
2023-10-26T23:06:05.058Z,81.10
2023-10-26T23:08:35.314Z,80.91
2023-10-26T23:11:04.574Z,81.06
2023-10-26T23:13:33.891Z,81.02
2023-10-26T23:16:02.600Z,81.19
2023-10-26T23:18:31.414Z,81.50
2023-10-26T23:21:00.089Z,81.39
2023-10-26T23:23:29.033Z,80.80
2023-10-26T23:25:57.839Z,81.26
2023-10-26T23:28:26.411Z,82.02
2023-10-26T23:30:54.867Z,81.34
2023-10-26T23:33:23.678Z,81.75
2023-10-26T23:35:52.271Z,81.99
2023-10-26T23:38:21.963Z,82.67
2023-10-26T23:40:50.837Z,82.74
2023-10-26T23:43:19.301Z,81.94
2023-10-26T23:45:47.792Z,82.62
2023-10-26T23:48:16.561Z,81.97
2023-10-26T23:50:45.146Z,81.83
2023-10-26T23:53:18.171Z,82.31
2023-10-26T23:55:47.172Z,82.50
2023-10-26T23:58:16.753Z,82.85
